sensor_id;sensor_type;location;lat;lon;timestamp;temperature;humidity
74946;HTU21D;63509;45.250;38.102;2023-02-26T00:00:59;9.31;54.23
74946;HTU21D;63509;45.250;38.102;2023-02-26T00:03:25;9.38;54.03
74946;HTU21D;63509;45.250;38.102;2023-02-26T00:05:51;9.49;53.91
74946;HTU21D;63509;45.250;38.102;2023-02-26T00:08:17;9.57;53.78
74946;HTU21D;63509;45.250;38.102;2023-02-26T00:10:43;9.67;53.60
74946;HTU21D;63509;45.250;38.102;2023-02-26T00:13:10;9.77;53.38
74946;HTU21D;63509;45.250;38.102;2023-02-26T00:15:36;9.88;53.13
74946;HTU21D;63509;45.250;38.102;2023-02-26T00:18:08;9.98;53.09
74946;HTU21D;63509;45.250;38.102;2023-02-26T00:20:38;10.07;52.80
74946;HTU21D;63509;45.250;38.102;2023-02-26T00:23:04;10.18;52.69
74946;HTU21D;63509;45.250;38.102;2023-02-26T00:25:30;10.27;52.55
74946;HTU21D;63509;45.250;38.102;2023-02-26T00:27:57;10.37;52.36
74946;HTU21D;63509;45.250;38.102;2023-02-26T00:30:23;10.45;52.17
74946;HTU21D;63509;45.250;38.102;2023-02-26T00:32:49;10.54;51.99
74946;HTU21D;63509;45.250;38.102;2023-02-26T00:35:15;10.60;51.84
74946;HTU21D;63509;45.250;38.102;2023-02-26T00:40:43;10.73;51.92
74946;HTU21D;63509;45.250;38.102;2023-02-26T00:43:17;10.78;51.70
74946;HTU21D;63509;45.250;38.102;2023-02-26T00:45:54;10.84;51.47
74946;HTU21D;63509;45.250;38.102;2023-02-26T00:56:13;11.03;50.93
74946;HTU21D;63509;45.250;38.102;2023-02-26T00:58:39;11.04;50.82
74946;HTU21D;63509;45.250;38.102;2023-02-26T01:01:05;11.08;50.70
74946;HTU21D;63509;45.250;38.102;2023-02-26T01:03:31;11.07;50.71
74946;HTU21D;63509;45.250;38.102;2023-02-26T01:05:58;11.09;50.68
74946;HTU21D;63509;45.250;38.102;2023-02-26T01:08:39;11.09;50.97
74946;HTU21D;63509;45.250;38.102;2023-02-26T01:11:08;11.10;50.59
74946;HTU21D;63509;45.250;38.102;2023-02-26T01:13:34;11.12;50.62
74946;HTU21D;63509;45.250;38.102;2023-02-26T01:16:08;11.14;50.72
74946;HTU21D;63509;45.250;38.102;2023-02-26T01:18:42;11.18;50.60
74946;HTU21D;63509;45.250;38.102;2023-02-26T01:21:16;11.22;50.42
74946;HTU21D;63509;45.250;38.102;2023-02-26T01:23:47;11.29;50.32
74946;HTU21D;63509;45.250;38.102;2023-02-26T01:26:24;11.34;50.30
74946;HTU21D;63509;45.250;38.102;2023-02-26T01:28:51;11.38;49.98
74946;HTU21D;63509;45.250;38.102;2023-02-26T01:34:21;11.45;50.08
74946;HTU21D;63509;45.250;38.102;2023-02-26T01:36:59;11.48;50.19
74946;HTU21D;63509;45.250;38.102;2023-02-26T01:39:54;11.53;50.33
74946;HTU21D;63509;45.250;38.102;2023-02-26T01:42:24;11.54;50.10
74946;HTU21D;63509;45.250;38.102;2023-02-26T01:45:00;11.56;50.17
74946;HTU21D;63509;45.250;38.102;2023-02-26T01:47:53;11.56;50.37
74946;HTU21D;63509;45.250;38.102;2023-02-26T01:50:23;11.53;50.09
74946;HTU21D;63509;45.250;38.102;2023-02-26T01:53:16;11.53;50.39
74946;HTU21D;63509;45.250;38.102;2023-02-26T01:55:45;11.51;50.13
74946;HTU21D;63509;45.250;38.102;2023-02-26T01:58:12;11.49;50.14
74946;HTU21D;63509;45.250;38.102;2023-02-26T02:00:38;11.49;50.18
74946;HTU21D;63509;45.250;38.102;2023-02-26T02:03:04;11.48;50.21
74946;HTU21D;63509;45.250;38.102;2023-02-26T02:05:44;11.48;50.32
74946;HTU21D;63509;45.250;38.102;2023-02-26T02:08:12;11.47;50.71
74946;HTU21D;63509;45.250;38.102;2023-02-26T02:10:43;11.45;50.60
74946;HTU21D;63509;45.250;38.102;2023-02-26T02:13:38;11.44;50.72
74946;HTU21D;63509;45.250;38.102;2023-02-26T02:19:29;11.38;50.86
74946;HTU21D;63509;45.250;38.102;2023-02-26T02:22:34;11.36;50.91
74946;HTU21D;63509;45.250;38.102;2023-02-26T02:33:18;11.32;50.90
74946;HTU21D;63509;45.250;38.102;2023-02-26T02:36:06;11.32;51.07
74946;HTU21D;63509;45.250;38.102;2023-02-26T02:38:56;11.31;51.06
74946;HTU21D;63509;45.250;38.102;2023-02-26T02:41:37;11.28;51.14
74946;HTU21D;63509;45.250;38.102;2023-02-26T02:44:09;11.27;51.10
74946;HTU21D;63509;45.250;38.102;2023-02-26T02:46:38;11.25;51.10
74946;HTU21D;63509;45.250;38.102;2023-02-26T02:49:24;11.26;51.41
74946;HTU21D;63509;45.250;38.102;2023-02-26T02:52:05;11.23;51.50
74946;HTU21D;63509;45.250;38.102;2023-02-26T02:54:58;11.22;51.46
74946;HTU21D;63509;45.250;38.102;2023-02-26T02:57:33;11.22;51.51
74946;HTU21D;63509;45.250;38.102;2023-02-26T03:00:11;11.22;51.48
74946;HTU21D;63509;45.250;38.102;2023-02-26T03:05:39;11.23;51.59
74946;HTU21D;63509;45.250;38.102;2023-02-26T03:08:11;11.23;51.66
74946;HTU21D;63509;45.250;38.102;2023-02-26T03:10:38;11.22;51.66
74946;HTU21D;63509;45.250;38.102;2023-02-26T03:13:05;11.22;51.73
74946;HTU21D;63509;45.250;38.102;2023-02-26T03:16:05;11.19;51.88
74946;HTU21D;63509;45.250;38.102;2023-02-26T03:24:17;11.14;52.28
74946;HTU21D;63509;45.250;38.102;2023-02-26T03:27:00;11.15;52.43
74946;HTU21D;63509;45.250;38.102;2023-02-26T03:41:23;11.27;52.88
74946;HTU21D;63509;45.250;38.102;2023-02-26T03:44:02;11.31;52.95
74946;HTU21D;63509;45.250;38.102;2023-02-26T03:46:43;11.34;52.99
74946;HTU21D;63509;45.250;38.102;2023-02-26T03:49:15;11.38;53.04
74946;HTU21D;63509;45.250;38.102;2023-02-26T03:51:43;11.39;53.07
74946;HTU21D;63509;45.250;38.102;2023-02-26T03:55:02;11.40;53.14
74946;HTU21D;63509;45.250;38.102;2023-02-26T03:57:49;11.37;53.23
74946;HTU21D;63509;45.250;38.102;2023-02-26T04:00:33;11.32;53.36
74946;HTU21D;63509;45.250;38.102;2023-02-26T04:05:38;11.30;53.56
74946;HTU21D;63509;45.250;38.102;2023-02-26T04:08:05;11.28;53.59
74946;HTU21D;63509;45.250;38.102;2023-02-26T04:10:37;11.25;53.58
74946;HTU21D;63509;45.250;38.102;2023-02-26T04:13:04;11.22;53.59
74946;HTU21D;63509;45.250;38.102;2023-02-26T04:15:30;11.18;53.58
74946;HTU21D;63509;45.250;38.102;2023-02-26T04:17:56;11.14;53.60
74946;HTU21D;63509;45.250;38.102;2023-02-26T04:20:22;11.13;53.59
74946;HTU21D;63509;45.250;38.102;2023-02-26T04:22:48;11.10;53.56
74946;HTU21D;63509;45.250;38.102;2023-02-26T04:25:20;11.08;53.62
74946;HTU21D;63509;45.250;38.102;2023-02-26T04:27:46;11.03;53.68
74946;HTU21D;63509;45.250;38.102;2023-02-26T04:30:12;11.00;53.72
74946;HTU21D;63509;45.250;38.102;2023-02-26T04:32:39;10.99;53.76
74946;HTU21D;63509;45.250;38.102;2023-02-26T04:35:06;10.95;53.83
74946;HTU21D;63509;45.250;38.102;2023-02-26T04:37:32;10.93;53.94
74946;HTU21D;63509;45.250;38.102;2023-02-26T04:39:58;10.92;54.00
74946;HTU21D;63509;45.250;38.102;2023-02-26T04:42:24;10.89;54.04
74946;HTU21D;63509;45.250;38.102;2023-02-26T04:44:50;10.88;54.12
74946;HTU21D;63509;45.250;38.102;2023-02-26T04:47:16;10.85;54.21
74946;HTU21D;63509;45.250;38.102;2023-02-26T04:49:42;10.84;54.30
74946;HTU21D;63509;45.250;38.102;2023-02-26T04:52:08;10.83;54.42
74946;HTU21D;63509;45.250;38.102;2023-02-26T04:54:35;10.83;54.51
74946;HTU21D;63509;45.250;38.102;2023-02-26T04:57:02;10.83;54.55
74946;HTU21D;63509;45.250;38.102;2023-02-26T04:59:29;10.85;54.65
74946;HTU21D;63509;45.250;38.102;2023-02-26T05:01:56;10.86;54.70
74946;HTU21D;63509;45.250;38.102;2023-02-26T05:04:22;10.87;54.79
74946;HTU21D;63509;45.250;38.102;2023-02-26T05:06:52;10.88;54.78
74946;HTU21D;63509;45.250;38.102;2023-02-26T05:09:19;10.90;54.81
74946;HTU21D;63509;45.250;38.102;2023-02-26T05:11:46;10.93;54.84
74946;HTU21D;63509;45.250;38.102;2023-02-26T05:14:15;10.96;54.94
74946;HTU21D;63509;45.250;38.102;2023-02-26T05:16:41;11.00;54.95
74946;HTU21D;63509;45.250;38.102;2023-02-26T05:19:07;11.03;54.98
74946;HTU21D;63509;45.250;38.102;2023-02-26T05:21:34;11.09;54.98
74946;HTU21D;63509;45.250;38.102;2023-02-26T05:24:00;11.14;54.99
74946;HTU21D;63509;45.250;38.102;2023-02-26T05:26:26;11.18;54.97
74946;HTU21D;63509;45.250;38.102;2023-02-26T05:28:52;11.22;55.02
74946;HTU21D;63509;45.250;38.102;2023-02-26T05:31:18;11.26;55.00
74946;HTU21D;63509;45.250;38.102;2023-02-26T05:33:44;11.31;54.99
74946;HTU21D;63509;45.250;38.102;2023-02-26T05:36:11;11.37;54.98
74946;HTU21D;63509;45.250;38.102;2023-02-26T05:38:37;11.43;54.94
74946;HTU21D;63509;45.250;38.102;2023-02-26T05:41:03;11.52;54.87
74946;HTU21D;63509;45.250;38.102;2023-02-26T05:43:29;11.60;54.81
74946;HTU21D;63509;45.250;38.102;2023-02-26T05:45:56;11.69;54.71
74946;HTU21D;63509;45.250;38.102;2023-02-26T05:48:22;11.78;54.63
74946;HTU21D;63509;45.250;38.102;2023-02-26T05:50:49;11.86;54.52
74946;HTU21D;63509;45.250;38.102;2023-02-26T05:53:15;11.93;54.46
74946;HTU21D;63509;45.250;38.102;2023-02-26T05:55:41;12.01;54.40
74946;HTU21D;63509;45.250;38.102;2023-02-26T05:58:07;12.08;54.33
74946;HTU21D;63509;45.250;38.102;2023-02-26T06:00:33;12.14;54.30
74946;HTU21D;63509;45.250;38.102;2023-02-26T06:02:59;12.20;54.25
74946;HTU21D;63509;45.250;38.102;2023-02-26T06:23:12;12.56;54.32
74946;HTU21D;63509;45.250;38.102;2023-02-26T06:25:41;12.59;54.13
74946;HTU21D;63509;45.250;38.102;2023-02-26T06:28:07;12.64;54.05
74946;HTU21D;63509;45.250;38.102;2023-02-26T06:34:14;12.75;53.97
74946;HTU21D;63509;45.250;38.102;2023-02-26T06:36:40;12.81;53.97
74946;HTU21D;63509;45.250;38.102;2023-02-26T06:39:06;12.87;53.85
74946;HTU21D;63509;45.250;38.102;2023-02-26T06:41:33;12.91;53.80
74946;HTU21D;63509;45.250;38.102;2023-02-26T06:43:59;12.96;53.79
74946;HTU21D;63509;45.250;38.102;2023-02-26T06:46:25;13.02;53.65
74946;HTU21D;63509;45.250;38.102;2023-02-26T06:48:51;13.06;53.61
74946;HTU21D;63509;45.250;38.102;2023-02-26T06:51:17;13.12;53.56
74946;HTU21D;63509;45.250;38.102;2023-02-26T06:53:43;13.17;53.43
74946;HTU21D;63509;45.250;38.102;2023-02-26T06:56:09;13.21;53.31
74946;HTU21D;63509;45.250;38.102;2023-02-26T06:58:35;13.29;53.24
74946;HTU21D;63509;45.250;38.102;2023-02-26T07:01:03;13.35;53.14
74946;HTU21D;63509;45.250;38.102;2023-02-26T07:03:29;13.40;53.07
74946;HTU21D;63509;45.250;38.102;2023-02-26T07:05:56;13.46;53.04
74946;HTU21D;63509;45.250;38.102;2023-02-26T07:08:22;13.50;52.92
74946;HTU21D;63509;45.250;38.102;2023-02-26T07:10:49;13.55;52.93
74946;HTU21D;63509;45.250;38.102;2023-02-26T07:13:16;13.61;52.85
74946;HTU21D;63509;45.250;38.102;2023-02-26T07:15:43;13.68;52.76
74946;HTU21D;63509;45.250;38.102;2023-02-26T07:18:08;13.74;52.75
74946;HTU21D;63509;45.250;38.102;2023-02-26T07:20:35;13.78;52.68
74946;HTU21D;63509;45.250;38.102;2023-02-26T07:23:01;13.83;52.59
74946;HTU21D;63509;45.250;38.102;2023-02-26T07:25:27;13.88;52.53
74946;HTU21D;63509;45.250;38.102;2023-02-26T07:27:53;13.92;52.52
74946;HTU21D;63509;45.250;38.102;2023-02-26T07:30:19;13.98;52.48
74946;HTU21D;63509;45.250;38.102;2023-02-26T07:32:45;14.03;52.43
74946;HTU21D;63509;45.250;38.102;2023-02-26T07:35:11;14.09;52.41
74946;HTU21D;63509;45.250;38.102;2023-02-26T07:37:37;14.14;52.36
74946;HTU21D;63509;45.250;38.102;2023-02-26T07:40:04;14.19;52.26
74946;HTU21D;63509;45.250;38.102;2023-02-26T07:42:30;14.24;52.24
74946;HTU21D;63509;45.250;38.102;2023-02-26T07:44:57;14.27;52.17
74946;HTU21D;63509;45.250;38.102;2023-02-26T07:47:23;14.33;52.15
74946;HTU21D;63509;45.250;38.102;2023-02-26T07:49:50;14.38;52.11
74946;HTU21D;63509;45.250;38.102;2023-02-26T07:52:16;14.44;52.04
74946;HTU21D;63509;45.250;38.102;2023-02-26T07:54:42;14.49;51.88
74946;HTU21D;63509;45.250;38.102;2023-02-26T07:57:08;14.53;51.83
74946;HTU21D;63509;45.250;38.102;2023-02-26T07:59:34;14.60;51.70
74946;HTU21D;63509;45.250;38.102;2023-02-26T08:02:00;14.64;51.65
74946;HTU21D;63509;45.250;38.102;2023-02-26T08:04:26;14.67;51.56
74946;HTU21D;63509;45.250;38.102;2023-02-26T08:06:52;14.69;51.46
74946;HTU21D;63509;45.250;38.102;2023-02-26T08:09:21;14.77;51.43
74946;HTU21D;63509;45.250;38.102;2023-02-26T08:11:47;14.78;51.37
74946;HTU21D;63509;45.250;38.102;2023-02-26T08:14:13;14.81;51.37
74946;HTU21D;63509;45.250;38.102;2023-02-26T08:16:39;14.87;51.30
74946;HTU21D;63509;45.250;38.102;2023-02-26T08:19:06;14.92;51.24
74946;HTU21D;63509;45.250;38.102;2023-02-26T08:21:32;14.95;51.24
74946;HTU21D;63509;45.250;38.102;2023-02-26T08:23:58;15.00;51.15
74946;HTU21D;63509;45.250;38.102;2023-02-26T08:26:24;15.04;51.01
74946;HTU21D;63509;45.250;38.102;2023-02-26T08:28:50;15.10;50.91
74946;HTU21D;63509;45.250;38.102;2023-02-26T08:31:16;15.12;50.88
74946;HTU21D;63509;45.250;38.102;2023-02-26T08:33:42;15.16;50.86
74946;HTU21D;63509;45.250;38.102;2023-02-26T08:36:09;15.19;50.79
74946;HTU21D;63509;45.250;38.102;2023-02-26T08:38:35;15.25;50.63
74946;HTU21D;63509;45.250;38.102;2023-02-26T08:41:01;15.31;50.64
74946;HTU21D;63509;45.250;38.102;2023-02-26T08:43:27;15.37;50.53
74946;HTU21D;63509;45.250;38.102;2023-02-26T08:45:55;15.40;50.49
74946;HTU21D;63509;45.250;38.102;2023-02-26T08:48:22;15.45;50.43
74946;HTU21D;63509;45.250;38.102;2023-02-26T08:50:49;15.51;50.35
74946;HTU21D;63509;45.250;38.102;2023-02-26T08:53:15;15.55;50.37
74946;HTU21D;63509;45.250;38.102;2023-02-26T08:55:41;15.60;50.29
74946;HTU21D;63509;45.250;38.102;2023-02-26T08:58:09;15.65;50.18
74946;HTU21D;63509;45.250;38.102;2023-02-26T09:00:36;15.71;50.08
74946;HTU21D;63509;45.250;38.102;2023-02-26T09:03:02;15.76;50.04
74946;HTU21D;63509;45.250;38.102;2023-02-26T09:05:28;15.84;49.96
74946;HTU21D;63509;45.250;38.102;2023-02-26T09:07:54;15.87;49.91
74946;HTU21D;63509;45.250;38.102;2023-02-26T09:10:20;15.96;49.87
74946;HTU21D;63509;45.250;38.102;2023-02-26T09:12:46;16.01;49.77
74946;HTU21D;63509;45.250;38.102;2023-02-26T09:15:12;16.05;49.56
74946;HTU21D;63509;45.250;38.102;2023-02-26T09:17:40;16.10;49.41
74946;HTU21D;63509;45.250;38.102;2023-02-26T09:20:07;16.14;49.37
74946;HTU21D;63509;45.250;38.102;2023-02-26T09:22:34;16.19;49.20
74946;HTU21D;63509;45.250;38.102;2023-02-26T09:25:00;16.22;49.29
74946;HTU21D;63509;45.250;38.102;2023-02-26T09:27:27;16.30;49.19
74946;HTU21D;63509;45.250;38.102;2023-02-26T09:29:53;16.35;49.11
74946;HTU21D;63509;45.250;38.102;2023-02-26T09:32:19;16.41;48.95
74946;HTU21D;63509;45.250;38.102;2023-02-26T09:34:45;16.46;48.72
74946;HTU21D;63509;45.250;38.102;2023-02-26T09:37:11;16.50;48.70
74946;HTU21D;63509;45.250;38.102;2023-02-26T09:39:37;16.54;48.42
74946;HTU21D;63509;45.250;38.102;2023-02-26T09:44:56;16.59;48.31
74946;HTU21D;63509;45.250;38.102;2023-02-26T09:47:47;16.60;48.73
74946;HTU21D;63509;45.250;38.102;2023-02-26T09:53:21;16.57;48.70
74946;HTU21D;63509;45.250;38.102;2023-02-26T09:55:49;16.58;48.35
74946;HTU21D;63509;45.250;38.102;2023-02-26T09:58:38;16.60;48.56
74946;HTU21D;63509;45.250;38.102;2023-02-26T10:01:07;16.60;48.17
74946;HTU21D;63509;45.250;38.102;2023-02-26T10:14:25;16.57;48.39
74946;HTU21D;63509;45.250;38.102;2023-02-26T10:16:57;16.56;49.01
74946;HTU21D;63509;45.250;38.102;2023-02-26T10:19:33;16.52;48.66
74946;HTU21D;63509;45.250;38.102;2023-02-26T10:22:31;16.51;48.46
74946;HTU21D;63509;45.250;38.102;2023-02-26T10:25:15;16.52;48.69
74946;HTU21D;63509;45.250;38.102;2023-02-26T10:30:57;16.54;48.47
74946;HTU21D;63509;45.250;38.102;2023-02-26T10:36:18;16.55;48.38
74946;HTU21D;63509;45.250;38.102;2023-02-26T10:39:02;16.56;48.48
74946;HTU21D;63509;45.250;38.102;2023-02-26T10:41:30;16.60;48.05
74946;HTU21D;63509;45.250;38.102;2023-02-26T10:44:19;16.66;48.31
74946;HTU21D;63509;45.250;38.102;2023-02-26T10:49:34;16.73;48.10
74946;HTU21D;63509;45.250;38.102;2023-02-26T10:52:25;16.80;48.34
74946;HTU21D;63509;45.250;38.102;2023-02-26T10:57:30;16.79;48.41
74946;HTU21D;63509;45.250;38.102;2023-02-26T10:59:59;16.82;48.24
74946;HTU21D;63509;45.250;38.102;2023-02-26T11:02:41;16.89;48.28
74946;HTU21D;63509;45.250;38.102;2023-02-26T11:05:19;16.91;48.21
74946;HTU21D;63509;45.250;38.102;2023-02-26T11:07:49;16.90;47.83
74946;HTU21D;63509;45.250;38.102;2023-02-26T11:10:20;16.90;47.82
74946;HTU21D;63509;45.250;38.102;2023-02-26T11:12:47;16.89;47.81
74946;HTU21D;63509;45.250;38.102;2023-02-26T11:15:16;16.88;47.88
74946;HTU21D;63509;45.250;38.102;2023-02-26T11:17:46;16.88;47.95
74946;HTU21D;63509;45.250;38.102;2023-02-26T11:20:17;16.87;48.12
74946;HTU21D;63509;45.250;38.102;2023-02-26T11:22:51;16.91;48.23
74946;HTU21D;63509;45.250;38.102;2023-02-26T11:25:22;16.93;48.09
74946;HTU21D;63509;45.250;38.102;2023-02-26T11:27:54;16.96;47.96
74946;HTU21D;63509;45.250;38.102;2023-02-26T11:30:25;16.96;47.86
74946;HTU21D;63509;45.250;38.102;2023-02-26T11:32:55;16.95;47.81
74946;HTU21D;63509;45.250;38.102;2023-02-26T11:35:23;16.92;47.73
74946;HTU21D;63509;45.250;38.102;2023-02-26T11:38:15;16.91;48.16
74946;HTU21D;63509;45.250;38.102;2023-02-26T11:40:46;16.88;48.15
74946;HTU21D;63509;45.250;38.102;2023-02-26T11:43:18;16.85;48.15
74946;HTU21D;63509;45.250;38.102;2023-02-26T11:45:54;16.81;48.33
74946;HTU21D;63509;45.250;38.102;2023-02-26T11:48:26;16.76;48.21
74946;HTU21D;63509;45.250;38.102;2023-02-26T11:50:58;16.73;48.16
74946;HTU21D;63509;45.250;38.102;2023-02-26T11:53:31;16.69;48.30
74946;HTU21D;63509;45.250;38.102;2023-02-26T11:56:11;16.64;48.50
74946;HTU21D;63509;45.250;38.102;2023-02-26T11:58:40;16.59;48.40
74946;HTU21D;63509;45.250;38.102;2023-02-26T12:01:10;16.58;48.46
74946;HTU21D;63509;45.250;38.102;2023-02-26T12:03:41;16.57;48.42
74946;HTU21D;63509;45.250;38.102;2023-02-26T12:06:20;16.57;48.66
74946;HTU21D;63509;45.250;38.102;2023-02-26T12:08:47;16.56;48.53
74946;HTU21D;63509;45.250;38.102;2023-02-26T12:20:26;16.51;48.74
74946;HTU21D;63509;45.250;38.102;2023-02-26T12:23:19;16.54;48.92
74946;HTU21D;63509;45.250;38.102;2023-02-26T12:26:16;16.52;48.84
74946;HTU21D;63509;45.250;38.102;2023-02-26T12:29:06;16.51;48.94
74946;HTU21D;63509;45.250;38.102;2023-02-26T12:32:11;16.50;49.04
74946;HTU21D;63509;45.250;38.102;2023-02-26T12:37:50;16.45;49.03
74946;HTU21D;63509;45.250;38.102;2023-02-26T12:43:47;16.39;49.22
74946;HTU21D;63509;45.250;38.102;2023-02-26T13:00:25;16.21;49.57
74946;HTU21D;63509;45.250;38.102;2023-02-26T13:13:50;16.11;49.86
74946;HTU21D;63509;45.250;38.102;2023-02-26T13:21:48;16.01;49.73
74946;HTU21D;63509;45.250;38.102;2023-02-26T13:27:01;15.91;49.96
74946;HTU21D;63509;45.250;38.102;2023-02-26T13:29:56;15.87;50.14
74946;HTU21D;63509;45.250;38.102;2023-02-26T13:32:25;15.80;50.09
74946;HTU21D;63509;45.250;38.102;2023-02-26T13:35:03;15.75;50.16
74946;HTU21D;63509;45.250;38.102;2023-02-26T13:37:45;15.70;50.35
74946;HTU21D;63509;45.250;38.102;2023-02-26T13:40:40;15.67;50.43
74946;HTU21D;63509;45.250;38.102;2023-02-26T13:46:17;15.54;50.58
74946;HTU21D;63509;45.250;38.102;2023-02-26T13:51:43;15.44;50.77
74946;HTU21D;63509;45.250;38.102;2023-02-26T13:56:46;15.33;50.76
74946;HTU21D;63509;45.250;38.102;2023-02-26T14:06:58;15.18;50.73
74946;HTU21D;63509;45.250;38.102;2023-02-26T14:15:25;15.12;50.80
74946;HTU21D;63509;45.250;38.102;2023-02-26T14:18:19;15.06;50.85
74946;HTU21D;63509;45.250;38.102;2023-02-26T14:20:50;15.00;50.79
74946;HTU21D;63509;45.250;38.102;2023-02-26T14:23:26;14.96;50.89
74946;HTU21D;63509;45.250;38.102;2023-02-26T14:26:04;14.91;50.98
74946;HTU21D;63509;45.250;38.102;2023-02-26T14:28:41;14.87;51.04
74946;HTU21D;63509;45.250;38.102;2023-02-26T14:31:14;14.82;51.08
74946;HTU21D;63509;45.250;38.102;2023-02-26T14:33:56;14.77;51.11
74946;HTU21D;63509;45.250;38.102;2023-02-26T14:39:04;14.68;51.17
74946;HTU21D;63509;45.250;38.102;2023-02-26T14:41:37;14.62;51.27
74946;HTU21D;63509;45.250;38.102;2023-02-26T14:44:16;14.56;51.32
74946;HTU21D;63509;45.250;38.102;2023-02-26T14:46:43;14.50;51.35
74946;HTU21D;63509;45.250;38.102;2023-02-26T14:49:31;14.43;51.46
74946;HTU21D;63509;45.250;38.102;2023-02-26T15:19:55;13.67;52.35
74946;HTU21D;63509;45.250;38.102;2023-02-26T15:22:35;13.59;52.46
74946;HTU21D;63509;45.250;38.102;2023-02-26T15:25:07;13.51;52.56
74946;HTU21D;63509;45.250;38.102;2023-02-26T15:27:39;13.45;52.64
74946;HTU21D;63509;45.250;38.102;2023-02-26T15:30:06;13.40;52.73
74946;HTU21D;63509;45.250;38.102;2023-02-26T15:32:36;13.33;52.80
74946;HTU21D;63509;45.250;38.102;2023-02-26T15:35:17;13.29;52.85
74946;HTU21D;63509;45.250;38.102;2023-02-26T15:37:53;13.20;52.96
74946;HTU21D;63509;45.250;38.102;2023-02-26T15:40:22;13.16;53.08
74946;HTU21D;63509;45.250;38.102;2023-02-26T15:42:52;13.08;53.19
74946;HTU21D;63509;45.250;38.102;2023-02-26T15:45:27;13.04;53.20
74946;HTU21D;63509;45.250;38.102;2023-02-26T15:47:59;12.99;53.28
74946;HTU21D;63509;45.250;38.102;2023-02-26T15:50:33;12.94;53.34
74946;HTU21D;63509;45.250;38.102;2023-02-26T15:53:02;12.91;53.42
74946;HTU21D;63509;45.250;38.102;2023-02-26T15:55:33;12.87;53.46
74946;HTU21D;63509;45.250;38.102;2023-02-26T15:58:00;12.84;53.49
74946;HTU21D;63509;45.250;38.102;2023-02-26T16:00:31;12.79;53.53
74946;HTU21D;63509;45.250;38.102;2023-02-26T16:02:57;12.73;53.60
74946;HTU21D;63509;45.250;38.102;2023-02-26T16:05:28;12.69;53.65
74946;HTU21D;63509;45.250;38.102;2023-02-26T16:07:55;12.61;53.75
74946;HTU21D;63509;45.250;38.102;2023-02-26T16:10:35;12.58;53.80
74946;HTU21D;63509;45.250;38.102;2023-02-26T16:13:06;12.53;53.92
74946;HTU21D;63509;45.250;38.102;2023-02-26T16:15:37;12.52;54.00
74946;HTU21D;63509;45.250;38.102;2023-02-26T16:18:07;12.49;54.06
74946;HTU21D;63509;45.250;38.102;2023-02-26T16:20:43;12.46;54.08
74946;HTU21D;63509;45.250;38.102;2023-02-26T16:23:16;12.42;54.18
74946;HTU21D;63509;45.250;38.102;2023-02-26T16:26:03;12.41;54.20
74946;HTU21D;63509;45.250;38.102;2023-02-26T16:28:37;12.40;54.28
74946;HTU21D;63509;45.250;38.102;2023-02-26T16:31:21;12.37;54.27
74946;HTU21D;63509;45.250;38.102;2023-02-26T16:33:57;12.37;54.32
74946;HTU21D;63509;45.250;38.102;2023-02-26T16:36:35;12.36;54.37
74946;HTU21D;63509;45.250;38.102;2023-02-26T16:39:22;12.36;54.36
74946;HTU21D;63509;45.250;38.102;2023-02-26T16:42:00;12.36;54.36
74946;HTU21D;63509;45.250;38.102;2023-02-26T16:46:57;12.32;54.45
74946;HTU21D;63509;45.250;38.102;2023-02-26T16:49:25;12.30;54.51
74946;HTU21D;63509;45.250;38.102;2023-02-26T16:51:52;12.26;54.56
74946;HTU21D;63509;45.250;38.102;2023-02-26T16:54:23;12.26;54.57
74946;HTU21D;63509;45.250;38.102;2023-02-26T16:57:03;12.26;54.58
74946;HTU21D;63509;45.250;38.102;2023-02-26T16:59:39;12.27;54.59
74946;HTU21D;63509;45.250;38.102;2023-02-26T17:02:18;12.28;54.59
74946;HTU21D;63509;45.250;38.102;2023-02-26T17:04:56;12.29;54.58
74946;HTU21D;63509;45.250;38.102;2023-02-26T17:07:29;12.28;54.59
74946;HTU21D;63509;45.250;38.102;2023-02-26T17:09:58;12.28;54.62
74946;HTU21D;63509;45.250;38.102;2023-02-26T17:15:27;12.16;54.67
74946;HTU21D;63509;45.250;38.102;2023-02-26T17:17:54;12.08;54.84
74946;HTU21D;63509;45.250;38.102;2023-02-26T17:20:24;12.03;54.98
74946;HTU21D;63509;45.250;38.102;2023-02-26T17:22:51;11.97;55.09
74946;HTU21D;63509;45.250;38.102;2023-02-26T17:25:18;11.93;55.17
74946;HTU21D;63509;45.250;38.102;2023-02-26T17:27:46;11.89;55.24
74946;HTU21D;63509;45.250;38.102;2023-02-26T17:30:17;11.87;55.29
74946;HTU21D;63509;45.250;38.102;2023-02-26T17:32:45;11.86;55.33
74946;HTU21D;63509;45.250;38.102;2023-02-26T17:35:12;11.85;55.34
74946;HTU21D;63509;45.250;38.102;2023-02-26T17:37:39;11.86;55.33
74946;HTU21D;63509;45.250;38.102;2023-02-26T17:40:27;11.87;55.28
74946;HTU21D;63509;45.250;38.102;2023-02-26T17:42:54;11.87;55.29
74946;HTU21D;63509;45.250;38.102;2023-02-26T17:45:21;11.88;55.25
74946;HTU21D;63509;45.250;38.102;2023-02-26T17:47:47;11.92;55.22
74946;HTU21D;63509;45.250;38.102;2023-02-26T17:53:16;11.97;55.12
74946;HTU21D;63509;45.250;38.102;2023-02-26T17:55:43;11.97;55.11
74946;HTU21D;63509;45.250;38.102;2023-02-26T17:58:21;11.98;55.12
74946;HTU21D;63509;45.250;38.102;2023-02-26T18:00:48;11.94;55.14
74946;HTU21D;63509;45.250;38.102;2023-02-26T18:03:18;11.93;55.15
74946;HTU21D;63509;45.250;38.102;2023-02-26T18:05:46;11.89;55.17
74946;HTU21D;63509;45.250;38.102;2023-02-26T18:08:24;11.85;55.20
74946;HTU21D;63509;45.250;38.102;2023-02-26T18:10:52;11.79;55.28
74946;HTU21D;63509;45.250;38.102;2023-02-26T18:13:18;11.72;55.37
74946;HTU21D;63509;45.250;38.102;2023-02-26T18:15:45;11.62;55.49
74946;HTU21D;63509;45.250;38.102;2023-02-26T18:18:12;11.55;55.61
74946;HTU21D;63509;45.250;38.102;2023-02-26T18:20:38;11.46;55.74
74946;HTU21D;63509;45.250;38.102;2023-02-26T18:23:04;11.38;55.87
74946;HTU21D;63509;45.250;38.102;2023-02-26T18:25:32;11.31;55.97
74946;HTU21D;63509;45.250;38.102;2023-02-26T18:28:00;11.26;56.03
74946;HTU21D;63509;45.250;38.102;2023-02-26T18:30:32;11.24;56.07
74946;HTU21D;63509;45.250;38.102;2023-02-26T18:32:58;11.22;56.07
74946;HTU21D;63509;45.250;38.102;2023-02-26T18:35:25;11.22;56.12
74946;HTU21D;63509;45.250;38.102;2023-02-26T18:37:53;11.24;56.11
74946;HTU21D;63509;45.250;38.102;2023-02-26T18:40:21;11.26;56.12
74946;HTU21D;63509;45.250;38.102;2023-02-26T18:42:48;11.30;56.10
74946;HTU21D;63509;45.250;38.102;2023-02-26T18:45:14;11.34;56.05
74946;HTU21D;63509;45.250;38.102;2023-02-26T18:47:42;11.41;56.02
74946;HTU21D;63509;45.250;38.102;2023-02-26T18:50:14;11.46;55.97
74946;HTU21D;63509;45.250;38.102;2023-02-26T18:52:42;11.51;55.90
74946;HTU21D;63509;45.250;38.102;2023-02-26T18:55:10;11.56;55.82